createdAt,value
2019-03-22T00:01:02.165Z,8.20
2019-03-22T00:03:30.842Z,8.10
2019-03-22T00:05:59.388Z,8.10
2019-03-22T00:08:27.856Z,8.00
2019-03-22T00:10:56.460Z,8.00
2019-03-22T00:13:24.980Z,7.90
2019-03-22T00:15:53.525Z,7.90
2019-03-22T00:18:22.122Z,7.90
2019-03-22T00:20:50.672Z,7.80
2019-03-22T00:23:19.208Z,7.80
2019-03-22T00:25:47.853Z,7.70
2019-03-22T00:28:16.616Z,7.70
2019-03-22T00:30:45.158Z,7.70
2019-03-22T00:33:13.757Z,7.70
2019-03-22T00:35:42.302Z,7.60
2019-03-22T00:38:10.841Z,7.60
2019-03-22T00:40:39.347Z,7.60
2019-03-22T00:43:07.889Z,7.60
2019-03-22T00:45:36.502Z,7.60
2019-03-22T00:48:05.067Z,7.60
2019-03-22T00:50:33.607Z,7.50
2019-03-22T00:53:02.149Z,7.40
2019-03-22T00:55:30.729Z,7.30
2019-03-22T00:57:59.351Z,7.30
2019-03-22T01:00:27.960Z,7.30
2019-03-22T01:02:56.533Z,7.20
2019-03-22T01:05:25.082Z,7.10
2019-03-22T01:07:53.629Z,7.10
2019-03-22T01:10:22.201Z,7.10
2019-03-22T01:12:50.885Z,7.00
2019-03-22T01:15:19.498Z,6.90
2019-03-22T01:17:48.141Z,6.90
2019-03-22T01:20:16.757Z,6.80
2019-03-22T01:22:45.308Z,6.70
2019-03-22T01:25:14.024Z,6.60
2019-03-22T01:27:42.567Z,6.60
2019-03-22T01:30:16.332Z,6.60
2019-03-22T01:32:44.966Z,6.60
2019-03-22T01:35:13.675Z,6.70
2019-03-22T01:37:42.214Z,6.80
2019-03-22T01:40:12.334Z,6.90
2019-03-22T01:42:40.809Z,7.00
2019-03-22T01:45:12.497Z,7.00
2019-03-22T01:47:41.152Z,7.00
2019-03-22T01:50:12.711Z,7.00
2019-03-22T01:52:41.327Z,6.90
2019-03-22T01:55:10.737Z,6.90
2019-03-22T01:57:39.288Z,6.90
2019-03-22T02:00:11.270Z,6.90
2019-03-22T02:02:39.991Z,6.80
2019-03-22T02:05:08.881Z,6.90
2019-03-22T02:07:37.420Z,6.90
2019-03-22T02:10:08.562Z,6.90
2019-03-22T02:12:37.171Z,6.80
2019-03-22T02:15:08.789Z,6.90
2019-03-22T02:17:37.292Z,6.90
2019-03-22T02:20:07.377Z,6.90
2019-03-22T02:22:35.918Z,6.80
2019-03-22T02:25:06.250Z,6.90
2019-03-22T02:27:34.929Z,6.80
2019-03-22T02:30:04.646Z,6.80
2019-03-22T02:32:34.111Z,6.80
2019-03-22T02:35:02.649Z,6.70
2019-03-22T02:37:31.122Z,6.60
2019-03-22T02:39:59.637Z,6.60
2019-03-22T02:42:28.191Z,6.60
2019-03-22T02:44:56.809Z,6.50
2019-03-22T02:47:25.436Z,6.50
2019-03-22T02:49:54.051Z,6.50
2019-03-22T02:52:22.699Z,6.60
2019-03-22T02:54:51.248Z,6.70
2019-03-22T02:57:19.790Z,6.70
2019-03-22T02:59:48.452Z,6.80
2019-03-22T03:02:17.051Z,6.90
2019-03-22T03:04:45.673Z,6.90
2019-03-22T03:07:14.315Z,7.00
2019-03-22T03:09:42.869Z,7.00
2019-03-22T03:12:11.408Z,7.10
2019-03-22T03:14:39.987Z,7.10
2019-03-22T03:17:08.530Z,7.20
2019-03-22T03:19:37.157Z,7.20
2019-03-22T03:22:05.862Z,7.30
2019-03-22T03:24:34.483Z,7.30
2019-03-22T03:27:03.102Z,7.30
2019-03-22T03:29:31.702Z,7.40
2019-03-22T03:32:00.335Z,7.40
2019-03-22T03:34:28.890Z,7.40
2019-03-22T03:36:58.984Z,7.50
2019-03-22T03:39:29.108Z,7.50
2019-03-22T03:41:57.789Z,7.50
2019-03-22T03:44:26.573Z,7.50
2019-03-22T03:46:55.117Z,7.50
2019-03-22T03:49:23.722Z,7.50
2019-03-22T03:51:52.237Z,7.60
2019-03-22T03:54:20.774Z,7.60
2019-03-22T03:56:49.321Z,7.60
2019-03-22T03:59:17.984Z,7.60
2019-03-22T04:01:46.562Z,7.60
2019-03-22T04:04:15.081Z,7.70
2019-03-22T04:06:43.631Z,7.70
2019-03-22T04:09:12.170Z,7.70
2019-03-22T04:11:40.721Z,7.70
2019-03-22T04:14:09.295Z,7.70
2019-03-22T04:16:37.854Z,7.70
2019-03-22T04:19:06.563Z,7.70
2019-03-22T04:21:35.133Z,7.70
2019-03-22T04:24:03.682Z,7.80
2019-03-22T04:26:32.310Z,7.80
2019-03-22T04:29:07.558Z,7.80
2019-03-22T04:31:31.214Z,7.80
2019-03-22T04:33:59.768Z,7.80
2019-03-22T04:36:28.321Z,7.90
2019-03-22T04:38:56.861Z,7.90
2019-03-22T04:41:25.477Z,7.90
2019-03-22T04:43:54.118Z,7.90
2019-03-22T04:46:23.602Z,8.00
2019-03-22T04:48:53.014Z,8.00
2019-03-22T04:51:22.025Z,8.00
2019-03-22T04:53:53.506Z,8.00
2019-03-22T04:56:22.685Z,8.10
2019-03-22T04:58:51.722Z,8.10
2019-03-22T05:01:23.713Z,8.10
2019-03-22T05:03:53.121Z,8.10
2019-03-22T05:06:22.409Z,8.10
2019-03-22T05:08:52.497Z,8.10
2019-03-22T05:11:21.609Z,8.10
2019-03-22T05:13:53.521Z,8.20
2019-03-22T05:16:23.110Z,8.20
2019-03-22T05:18:52.785Z,8.20
2019-03-22T05:21:24.214Z,8.20
2019-03-22T05:23:55.892Z,8.20
2019-03-22T05:26:27.779Z,8.20
2019-03-22T05:28:56.690Z,8.20
2019-03-22T05:31:28.322Z,8.20
2019-03-22T05:33:56.861Z,8.20
2019-03-22T05:36:25.429Z,8.30
2019-03-22T05:38:53.906Z,8.30
2019-03-22T05:41:22.446Z,8.30
2019-03-22T05:43:50.955Z,8.40
2019-03-22T05:46:19.493Z,8.40
2019-03-22T05:48:48.033Z,8.40
2019-03-22T05:51:16.530Z,8.40
2019-03-22T05:53:45.066Z,8.40
2019-03-22T05:56:13.612Z,8.50
2019-03-22T05:58:42.178Z,8.50
2019-03-22T06:01:10.789Z,8.50
2019-03-22T06:03:39.339Z,8.50
2019-03-22T06:06:07.836Z,8.60
2019-03-22T06:08:36.378Z,8.60
2019-03-22T06:11:04.991Z,8.60
2019-03-22T06:13:33.633Z,8.60
2019-03-22T06:16:02.182Z,8.70
2019-03-22T06:18:30.653Z,8.70
2019-03-22T06:20:59.285Z,8.80
2019-03-22T06:23:27.768Z,8.80
2019-03-22T06:25:56.308Z,8.80
2019-03-22T06:28:24.888Z,8.90
2019-03-22T06:30:53.437Z,8.90
2019-03-22T06:33:22.770Z,8.90
2019-03-22T06:35:51.349Z,8.90
2019-03-22T06:38:19.962Z,9.00
2019-03-22T06:40:48.497Z,9.00
2019-03-22T06:43:17.069Z,9.00
2019-03-22T06:45:45.610Z,9.00
2019-03-22T06:48:14.159Z,9.10
2019-03-22T06:50:42.950Z,9.10
2019-03-22T06:53:11.499Z,9.10
2019-03-22T06:55:40.109Z,9.20
2019-03-22T06:58:08.683Z,9.20
2019-03-22T07:00:37.153Z,9.20
2019-03-22T07:03:05.773Z,9.30
2019-03-22T07:05:34.273Z,9.30
2019-03-22T07:08:02.746Z,9.40
2019-03-22T07:10:31.289Z,9.40
2019-03-22T07:12:59.955Z,9.40
2019-03-22T07:15:28.422Z,9.40
2019-03-22T07:17:56.965Z,9.50
2019-03-22T07:20:25.538Z,9.50
2019-03-22T07:22:54.220Z,9.60
2019-03-22T07:25:22.829Z,9.60
2019-03-22T07:27:52.871Z,9.60
2019-03-22T07:30:23.050Z,9.70
2019-03-22T07:32:51.612Z,9.70
2019-03-22T07:35:20.246Z,9.80
2019-03-22T07:37:48.792Z,9.80
2019-03-22T07:40:17.412Z,9.90
2019-03-22T07:42:45.985Z,9.90
2019-03-22T07:45:14.602Z,9.90
2019-03-22T07:47:43.142Z,10.00
2019-03-22T07:50:13.060Z,10.00
2019-03-22T07:52:43.143Z,10.00
2019-03-22T07:55:11.930Z,10.00
2019-03-22T07:57:40.517Z,10.00
2019-03-22T08:00:10.982Z,10.10
2019-03-22T08:02:39.606Z,10.20
2019-03-22T08:05:08.636Z,10.20
2019-03-22T08:07:37.255Z,10.20
2019-03-22T08:10:07.758Z,10.20
2019-03-22T08:12:36.414Z,10.30
2019-03-22T08:15:08.359Z,10.30
2019-03-22T08:17:36.538Z,10.30
2019-03-22T08:20:07.355Z,10.40
2019-03-22T08:22:36.200Z,10.40
2019-03-22T08:25:05.246Z,10.50
2019-03-22T08:27:33.839Z,10.50
2019-03-22T08:30:02.450Z,10.50
2019-03-22T08:32:31.089Z,10.60
2019-03-22T08:35:00.483Z,10.60
2019-03-22T08:37:29.036Z,10.50
2019-03-22T08:39:57.573Z,10.60
2019-03-22T08:42:26.164Z,10.70
2019-03-22T08:44:54.813Z,10.70
2019-03-22T08:47:33.286Z,10.70
2019-03-22T08:49:53.643Z,10.70
2019-03-22T08:52:22.214Z,10.70
2019-03-22T08:54:50.754Z,10.70
2019-03-22T08:57:19.342Z,10.70
2019-03-22T08:59:47.900Z,10.80
2019-03-22T09:02:16.438Z,10.80
2019-03-22T09:04:45.011Z,11.00
2019-03-22T09:07:13.649Z,10.90
2019-03-22T09:09:42.177Z,11.00
2019-03-22T09:12:10.876Z,11.00
2019-03-22T09:14:39.395Z,11.10
2019-03-22T09:17:07.970Z,11.10
2019-03-22T09:19:36.607Z,11.10
2019-03-22T09:22:05.179Z,11.10
2019-03-22T09:24:39.093Z,11.10
2019-03-22T09:27:04.079Z,11.10
2019-03-22T09:29:32.676Z,11.10
2019-03-22T09:32:01.335Z,11.20
2019-03-22T09:34:33.912Z,11.10
2019-03-22T09:37:00.185Z,11.10
2019-03-22T09:39:28.856Z,11.20
2019-03-22T09:41:57.678Z,11.20
2019-03-22T09:44:28.181Z,11.10
2019-03-22T09:46:56.602Z,11.10
2019-03-22T09:49:25.188Z,11.20
2019-03-22T09:51:55.197Z,11.20
2019-03-22T09:54:24.161Z,11.10
2019-03-22T09:56:52.763Z,11.10
2019-03-22T09:59:22.366Z,11.20
2019-03-22T10:01:51.094Z,11.30
2019-03-22T10:04:19.622Z,11.30
2019-03-22T10:06:48.178Z,11.40
2019-03-22T10:09:16.767Z,11.40
2019-03-22T10:11:45.376Z,11.40
2019-03-22T10:14:13.940Z,11.50
2019-03-22T10:16:42.601Z,11.50
2019-03-22T10:19:11.140Z,11.60
2019-03-22T10:21:39.749Z,11.60
2019-03-22T10:24:08.447Z,11.60
2019-03-22T10:26:37.097Z,11.50
2019-03-22T10:29:07.057Z,11.50
2019-03-22T10:31:37.302Z,11.50
2019-03-22T10:34:06.289Z,11.50
2019-03-22T10:36:35.322Z,11.50
2019-03-22T10:39:05.562Z,11.50
2019-03-22T10:41:34.264Z,11.50
2019-03-22T10:44:02.835Z,11.60
2019-03-22T10:46:31.377Z,11.50
2019-03-22T10:49:00.026Z,11.60
2019-03-22T10:51:28.713Z,11.50
2019-03-22T10:53:57.274Z,11.60
2019-03-22T10:56:25.924Z,11.60
2019-03-22T10:58:54.547Z,11.60
2019-03-22T11:01:23.185Z,11.60
2019-03-22T11:03:51.842Z,11.60
2019-03-22T11:06:26.149Z,11.60
2019-03-22T11:08:51.683Z,11.60
2019-03-22T11:11:20.235Z,11.60
2019-03-22T11:13:48.920Z,11.70
2019-03-22T11:16:17.670Z,11.70
2019-03-22T11:18:46.209Z,11.70
2019-03-22T11:21:14.757Z,11.70
2019-03-22T11:23:43.342Z,11.60
2019-03-22T11:26:11.893Z,11.60
2019-03-22T11:28:40.445Z,11.60
2019-03-22T11:31:09.098Z,11.60
2019-03-22T11:33:37.796Z,11.60
2019-03-22T11:36:06.410Z,11.60
2019-03-22T11:38:34.938Z,11.60
2019-03-22T11:41:03.666Z,11.60
2019-03-22T11:43:32.363Z,11.60
2019-03-22T11:46:00.914Z,11.70
2019-03-22T11:48:29.580Z,11.70
2019-03-22T11:50:58.124Z,11.60
2019-03-22T11:53:26.674Z,11.50
2019-03-22T11:55:55.325Z,11.50
2019-03-22T11:58:23.870Z,11.50
2019-03-22T12:00:52.499Z,11.50
2019-03-22T12:03:21.114Z,11.60
2019-03-22T12:05:49.663Z,11.60
2019-03-22T12:08:18.303Z,11.70
2019-03-22T12:10:46.923Z,11.70
2019-03-22T12:13:15.478Z,11.70
2019-03-22T12:15:44.027Z,11.70
2019-03-22T12:18:12.746Z,11.70
2019-03-22T12:20:41.361Z,11.60
2019-03-22T12:23:09.981Z,11.70
2019-03-22T12:25:38.614Z,11.60
2019-03-22T12:28:07.235Z,11.50
2019-03-22T12:30:35.853Z,11.50
2019-03-22T12:33:04.595Z,11.50
2019-03-22T12:35:33.283Z,11.50
2019-03-22T12:38:02.050Z,11.50
2019-03-22T12:40:30.697Z,11.50
2019-03-22T12:42:59.310Z,11.50
2019-03-22T12:45:32.053Z,11.40
2019-03-22T12:48:02.697Z,11.40
2019-03-22T12:50:31.390Z,11.40
2019-03-22T12:53:00.086Z,11.30
2019-03-22T12:55:28.743Z,11.30
2019-03-22T12:57:59.372Z,11.30
2019-03-22T13:00:27.790Z,11.30
2019-03-22T13:02:57.337Z,11.30
2019-03-22T13:05:26.026Z,11.20
2019-03-22T13:07:54.501Z,11.20
2019-03-22T13:10:27.962Z,11.20
2019-03-22T13:12:56.654Z,11.10
2019-03-22T13:15:25.206Z,11.10
2019-03-22T13:17:55.822Z,11.10
2019-03-22T13:20:24.434Z,11.10
2019-03-22T13:22:52.907Z,11.10
2019-03-22T13:25:21.537Z,11.00
2019-03-22T13:27:50.143Z,11.00
2019-03-22T13:30:30.616Z,11.00
2019-03-22T13:32:59.599Z,11.00
2019-03-22T13:35:28.215Z,11.00
2019-03-22T13:37:56.864Z,11.00
2019-03-22T13:43:08.802Z,11.00
2019-03-22T13:45:38.926Z,11.00
2019-03-22T13:48:07.546Z,11.00
2019-03-22T13:50:37.666Z,10.90
2019-03-22T13:53:06.286Z,10.90
2019-03-22T13:55:34.917Z,10.90
2019-03-22T13:58:03.602Z,10.90
2019-03-22T14:00:32.322Z,10.90
2019-03-22T14:03:02.843Z,10.90
2019-03-22T14:05:31.141Z,10.90
2019-03-22T14:07:59.705Z,10.90
2019-03-22T14:10:36.374Z,10.90
2019-03-22T14:13:06.499Z,10.90
2019-03-22T14:15:36.562Z,10.80
2019-03-22T14:18:06.257Z,10.80
2019-03-22T14:20:34.897Z,10.80
2019-03-22T14:23:03.581Z,10.80
2019-03-22T14:25:32.176Z,10.80
2019-03-22T14:28:00.782Z,10.80
2019-03-22T14:30:29.469Z,10.80
2019-03-22T14:32:57.945Z,10.80
2019-03-22T14:35:28.440Z,10.80
2019-03-22T14:37:56.928Z,10.80
2019-03-22T14:40:25.722Z,10.80
2019-03-22T14:42:54.478Z,10.80
2019-03-22T14:45:23.571Z,10.90
2019-03-22T14:47:52.079Z,10.80
2019-03-22T14:50:20.894Z,10.90
2019-03-22T14:52:49.590Z,10.90
2019-03-22T14:55:18.306Z,10.90
2019-03-22T14:57:50.160Z,10.90
2019-03-22T15:00:17.179Z,10.90
2019-03-22T15:02:45.854Z,10.90
2019-03-22T15:05:14.510Z,10.90
2019-03-22T15:07:43.118Z,11.00
2019-03-22T15:10:13.117Z,11.00
2019-03-22T15:12:41.856Z,10.90
2019-03-22T15:15:29.101Z,10.90
2019-03-22T15:18:05.253Z,10.90
2019-03-22T15:20:53.615Z,10.90
2019-03-22T15:23:39.104Z,10.90
2019-03-22T15:26:09.426Z,10.80
2019-03-22T15:28:54.289Z,10.80
2019-03-22T15:31:33.154Z,10.80
2019-03-22T15:34:20.081Z,10.80
2019-03-22T15:37:05.493Z,10.70
2019-03-22T15:39:35.696Z,10.70
2019-03-22T15:42:04.418Z,10.70
2019-03-22T15:44:32.966Z,10.60
2019-03-22T15:47:01.671Z,10.60
2019-03-22T15:49:30.327Z,10.60
2019-03-22T15:51:59.010Z,10.60
2019-03-22T15:54:27.688Z,10.60
2019-03-22T15:56:56.267Z,10.60
2019-03-22T15:59:24.810Z,10.60
2019-03-22T16:01:53.280Z,10.60
2019-03-22T16:04:21.921Z,10.60
2019-03-22T16:06:50.544Z,10.60
2019-03-22T16:09:19.233Z,10.50
2019-03-22T16:11:47.887Z,10.50
2019-03-22T16:14:16.462Z,10.50
2019-03-22T16:16:45.083Z,10.50
2019-03-22T16:19:13.721Z,10.50
2019-03-22T16:21:42.195Z,10.50
2019-03-22T16:24:10.815Z,10.50
2019-03-22T16:26:39.399Z,10.50
2019-03-22T16:29:08.097Z,10.40
2019-03-22T16:31:36.701Z,10.40
2019-03-22T16:34:05.412Z,10.40
2019-03-22T16:36:33.946Z,10.40
2019-03-22T16:39:02.560Z,10.40
2019-03-22T16:41:31.113Z,10.40
2019-03-22T16:43:59.921Z,10.30
2019-03-22T16:46:28.475Z,10.20
2019-03-22T16:48:57.021Z,10.20
2019-03-22T16:51:25.568Z,10.10
2019-03-22T16:53:54.118Z,10.10
2019-03-22T16:56:22.757Z,10.10
2019-03-22T16:58:51.301Z,10.10
2019-03-22T17:01:19.849Z,10.00
2019-03-22T17:03:48.382Z,10.00
2019-03-22T17:06:16.998Z,10.00
2019-03-22T17:08:45.677Z,9.90
2019-03-22T17:11:14.257Z,9.90
2019-03-22T17:13:42.737Z,9.90
2019-03-22T17:16:11.279Z,9.90
2019-03-22T17:18:39.915Z,9.80
2019-03-22T17:21:08.479Z,9.80
2019-03-22T17:23:37.022Z,9.70
2019-03-22T17:26:05.808Z,9.70
2019-03-22T17:28:34.500Z,9.60
2019-03-22T17:31:03.045Z,9.50
2019-03-22T17:33:31.536Z,9.30
2019-03-22T17:36:00.222Z,9.20
2019-03-22T17:38:28.912Z,9.00
2019-03-22T17:40:57.513Z,8.90
2019-03-22T17:43:26.057Z,8.80
2019-03-22T17:45:54.745Z,8.60
2019-03-22T17:48:23.321Z,8.50
2019-03-22T17:50:51.868Z,8.30
2019-03-22T17:53:20.415Z,8.20
2019-03-22T17:55:48.989Z,8.00
2019-03-22T17:58:17.468Z,7.90
2019-03-22T18:00:47.029Z,7.80
2019-03-22T18:03:15.741Z,7.60
2019-03-22T18:05:44.441Z,7.60
2019-03-22T18:08:12.986Z,7.50
2019-03-22T18:10:41.496Z,7.40
2019-03-22T18:13:09.970Z,7.30
2019-03-22T18:15:38.526Z,7.20
2019-03-22T18:18:07.181Z,7.10
2019-03-22T18:20:35.721Z,7.00
2019-03-22T18:23:04.270Z,6.90
2019-03-22T18:25:32.908Z,6.90
2019-03-22T18:28:01.398Z,6.80
2019-03-22T18:30:29.946Z,6.70
2019-03-22T18:32:58.518Z,6.60
2019-03-22T18:35:27.071Z,6.50
2019-03-22T18:37:55.684Z,6.50
2019-03-22T18:40:24.365Z,6.40
2019-03-22T18:42:52.896Z,6.30
2019-03-22T18:45:21.443Z,6.20
2019-03-22T18:47:50.054Z,6.20
2019-03-22T18:50:18.766Z,6.20
2019-03-22T18:52:47.453Z,6.20
2019-03-22T18:55:16.049Z,6.20
2019-03-22T18:57:44.592Z,6.20
2019-03-22T19:00:17.685Z,6.20
2019-03-22T19:02:46.662Z,6.30
2019-03-22T19:05:15.613Z,6.30
2019-03-22T19:07:44.804Z,6.40
2019-03-22T19:10:26.439Z,6.50
2019-03-22T19:12:55.051Z,6.50
2019-03-22T19:15:24.081Z,6.60
2019-03-22T19:17:52.600Z,6.70
2019-03-22T19:20:21.096Z,6.70
2019-03-22T19:22:49.726Z,6.80
2019-03-22T19:25:18.670Z,6.90
2019-03-22T19:27:47.298Z,6.90
2019-03-22T19:30:16.711Z,7.00
2019-03-22T19:32:45.446Z,7.00
2019-03-22T19:35:14.204Z,7.10
2019-03-22T19:37:43.060Z,7.20
2019-03-22T19:40:16.151Z,7.20
2019-03-22T19:42:44.878Z,7.30
2019-03-22T19:45:16.764Z,7.30
2019-03-22T19:47:47.304Z,7.40
2019-03-22T19:50:16.825Z,7.50
2019-03-22T19:52:45.518Z,7.50
2019-03-22T19:55:14.528Z,7.60
2019-03-22T19:57:43.213Z,7.60
2019-03-22T20:00:14.367Z,7.70
2019-03-22T20:02:43.001Z,7.80
2019-03-22T20:05:11.785Z,7.80
2019-03-22T20:07:40.517Z,7.90
2019-03-22T20:10:14.101Z,7.90
2019-03-22T20:12:42.743Z,8.00
2019-03-22T20:15:30.637Z,8.00
2019-03-22T20:17:59.373Z,8.10
2019-03-22T20:20:27.991Z,8.20
2019-03-22T20:22:56.571Z,8.20
2019-03-22T20:25:25.191Z,8.30
2019-03-22T20:27:53.824Z,8.30
2019-03-22T20:30:22.525Z,8.30
2019-03-22T20:32:51.145Z,8.40
2019-03-22T20:35:19.809Z,8.40
2019-03-22T20:37:50.025Z,8.50
2019-03-22T20:40:19.658Z,8.50
2019-03-22T20:42:48.297Z,8.50
2019-03-22T20:45:23.977Z,8.50
2019-03-22T20:47:47.330Z,8.60
2019-03-22T20:50:16.219Z,8.60
2019-03-22T20:52:44.773Z,8.60
2019-03-22T20:55:15.123Z,8.60
2019-03-22T20:57:43.733Z,8.60
2019-03-22T21:00:17.941Z,8.70
2019-03-22T21:02:48.285Z,8.70
2019-03-22T21:05:26.502Z,8.70
2019-03-22T21:07:47.019Z,8.70
2019-03-22T21:10:15.759Z,8.80
2019-03-22T21:12:44.239Z,8.80
2019-03-22T21:15:23.520Z,8.80
2019-03-22T21:17:43.836Z,8.80
2019-03-22T21:20:12.778Z,8.80
2019-03-22T21:22:41.353Z,8.80
2019-03-22T21:25:11.149Z,8.80
2019-03-22T21:27:39.714Z,8.90
2019-03-22T21:30:11.371Z,8.90
2019-03-22T21:32:45.074Z,9.00
2019-03-22T21:35:21.574Z,9.00
2019-03-22T21:37:40.932Z,9.00
2019-03-22T21:40:11.047Z,9.00
2019-03-22T21:42:39.725Z,9.00
2019-03-22T21:45:09.468Z,9.00
2019-03-22T21:47:39.117Z,9.00
2019-03-22T21:50:09.023Z,9.00
2019-03-22T21:52:37.581Z,9.00
2019-03-22T21:55:10.198Z,9.00
2019-03-22T21:57:38.909Z,9.00
2019-03-22T22:00:09.800Z,9.00
2019-03-22T22:02:39.050Z,9.00
2019-03-22T22:05:08.329Z,9.00
2019-03-22T22:07:37.008Z,9.00
2019-03-22T22:10:07.221Z,9.00
2019-03-22T22:12:35.905Z,9.00
2019-03-22T22:15:08.993Z,9.00
2019-03-22T22:17:39.316Z,9.10
2019-03-22T22:20:08.501Z,9.10
2019-03-22T22:22:36.983Z,9.10
2019-03-22T22:25:06.801Z,9.10
2019-03-22T22:27:35.507Z,9.10
2019-03-22T22:30:12.016Z,9.20
2019-03-22T22:32:40.574Z,9.20
2019-03-22T22:35:09.548Z,9.20
2019-03-22T22:37:38.357Z,9.20
2019-03-22T22:40:10.473Z,9.20
2019-03-22T22:42:39.098Z,9.20
2019-03-22T22:45:09.608Z,9.20
2019-03-22T22:47:38.280Z,9.20
2019-03-22T22:50:08.397Z,9.20
2019-03-22T22:52:37.097Z,9.20
2019-03-22T22:55:06.777Z,9.10
2019-03-22T22:57:35.393Z,9.10
2019-03-22T23:00:06.730Z,9.10
2019-03-22T23:02:35.260Z,9.00
2019-03-22T23:05:04.778Z,8.90
2019-03-22T23:07:33.458Z,8.80
2019-03-22T23:10:02.069Z,8.60
2019-03-22T23:12:30.770Z,8.50
2019-03-22T23:14:59.345Z,8.40
2019-03-22T23:17:27.893Z,8.30
2019-03-22T23:19:56.428Z,8.20
2019-03-22T23:22:24.984Z,8.10
2019-03-22T23:24:53.532Z,8.00
2019-03-22T23:27:22.078Z,7.90
2019-03-22T23:29:50.617Z,7.80
2019-03-22T23:32:19.161Z,7.70
2019-03-22T23:34:47.643Z,7.60
2019-03-22T23:37:16.300Z,7.60
2019-03-22T23:39:44.834Z,7.50
2019-03-22T23:42:16.357Z,7.40
2019-03-22T23:44:44.853Z,7.40
2019-03-22T23:47:13.338Z,7.20
2019-03-22T23:49:41.940Z,7.20
2019-03-22T23:52:10.458Z,7.10
2019-03-22T23:54:38.925Z,7.00
2019-03-22T23:57:07.483Z,6.90
2019-03-22T23:59:36.046Z,6.80
